Terminal Aerodrome Forecast
Issued by NWS

Home | Current Version | Previous Version | Text Only | Print | Product List | Glossary On
Versions: 1 2 3 4 5 6 7 8 9 10 11 12 13 14 15 16 17 18 19
000
FTAK31 PAJN 230710 AAA
TAFAPG
TAF AMD
PAPG 230710Z 2307/2406 VRB03KT P6SM BKN008 OVC015
     FM231000 24003KT P6SM VCSH SCT015 OVC035
     FM231900 09004KT 6SM -RASN BKN020 OVC035
     FM240300 12005KT 3SM -SNRA BR BKN015 OVC025
      AMD LTD TO CLD VIS AND WIND 2306/2315=

USA.gov is the U.S. government's official web portal to all federal, state and local government web resources and services.